createdAt,value
2018-09-02T00:01:21.599Z,12.20
2018-09-02T00:03:52.589Z,12.20
2018-09-02T00:06:23.611Z,12.20
2018-09-02T00:08:54.491Z,12.20
2018-09-02T00:11:25.739Z,12.30
2018-09-02T00:13:56.771Z,12.30
2018-09-02T00:16:27.911Z,12.30
2018-09-02T00:18:58.835Z,12.40
2018-09-02T00:21:29.787Z,12.30
2018-09-02T00:24:00.731Z,12.20
2018-09-02T00:26:32.112Z,12.20
2018-09-02T00:29:03.011Z,12.10
2018-09-02T00:31:34.031Z,12.20
2018-09-02T00:34:05.013Z,12.20
2018-09-02T00:36:36.083Z,12.10
2018-09-02T00:39:09.912Z,12.20
2018-09-02T00:41:41.243Z,12.20
2018-09-02T00:44:12.211Z,12.20
2018-09-02T00:46:43.326Z,12.20
2018-09-02T00:49:14.232Z,12.20
2018-09-02T00:51:45.227Z,12.20
2018-09-02T00:54:16.096Z,12.20
2018-09-02T00:56:47.398Z,12.10
2018-09-02T00:59:18.371Z,12.20
2018-09-02T01:01:49.483Z,12.20
2018-09-02T01:04:20.417Z,12.10
2018-09-02T01:06:51.415Z,12.20
2018-09-02T01:09:22.246Z,12.10
2018-09-02T01:11:53.351Z,12.00
2018-09-02T01:14:24.351Z,12.10
2018-09-02T01:16:55.302Z,12.00
2018-09-02T01:19:26.203Z,12.10
2018-09-02T01:21:57.243Z,12.10
2018-09-02T01:24:28.443Z,12.10
2018-09-02T01:26:59.386Z,12.10
2018-09-02T01:29:30.304Z,12.20
2018-09-02T01:32:01.311Z,12.20
2018-09-02T01:34:32.213Z,12.20
2018-09-02T01:37:03.140Z,12.30
2018-09-02T01:39:34.100Z,12.30
2018-09-02T01:42:05.123Z,12.20
2018-09-02T01:44:36.231Z,12.20
2018-09-02T01:47:07.354Z,12.20
2018-09-02T01:49:38.311Z,12.20
2018-09-02T01:52:09.243Z,12.10
2018-09-02T01:54:40.080Z,12.10
2018-09-02T01:57:11.123Z,12.10
2018-09-02T01:59:42.055Z,12.20
2018-09-02T02:02:13.084Z,12.20
2018-09-02T02:04:44.094Z,12.30
2018-09-02T02:07:15.304Z,12.20
2018-09-02T02:09:46.199Z,12.20
2018-09-02T02:12:17.152Z,12.20
2018-09-02T02:14:48.053Z,12.20
2018-09-02T02:17:19.152Z,12.20
2018-09-02T02:19:50.152Z,12.10
2018-09-02T02:22:21.213Z,12.10
2018-09-02T02:24:52.112Z,12.10
2018-09-02T02:27:23.122Z,12.10
2018-09-02T02:29:54.995Z,12.00
2018-09-02T02:32:26.084Z,12.00
2018-09-02T02:34:57.071Z,12.00
2018-09-02T02:37:27.990Z,11.90
2018-09-02T02:39:59.104Z,12.00
2018-09-02T02:42:30.084Z,12.00
2018-09-02T02:45:01.023Z,12.00
2018-09-02T02:47:31.920Z,12.00
2018-09-02T02:50:02.932Z,12.00
2018-09-02T02:52:38.899Z,12.00
2018-09-02T02:55:10.596Z,11.90
2018-09-02T02:57:41.511Z,12.00
2018-09-02T03:00:12.471Z,12.10
2018-09-02T03:02:43.398Z,12.20
2018-09-02T03:05:14.310Z,12.20
2018-09-02T03:07:45.243Z,12.20
2018-09-02T03:10:16.251Z,12.10
2018-09-02T03:12:47.303Z,12.20
2018-09-02T03:15:19.186Z,12.10
2018-09-02T03:17:50.254Z,12.10
2018-09-02T03:20:21.195Z,12.10
2018-09-02T03:22:52.215Z,12.00
2018-09-02T03:25:23.135Z,11.90
2018-09-02T03:27:54.172Z,12.00
2018-09-02T03:30:25.104Z,12.20
2018-09-02T03:32:56.183Z,12.20
2018-09-02T03:35:27.165Z,12.10
2018-09-02T03:37:58.151Z,12.10
2018-09-02T03:40:29.151Z,12.00
2018-09-02T03:43:00.151Z,11.90
2018-09-02T03:45:31.051Z,12.00
2018-09-02T03:48:02.130Z,12.00
2018-09-02T03:50:33.055Z,12.00
2018-09-02T03:53:04.411Z,12.00
2018-09-02T03:55:35.613Z,12.00
2018-09-02T03:58:06.638Z,12.00
2018-09-02T04:00:37.572Z,12.00
2018-09-02T04:03:08.523Z,12.10
2018-09-02T04:05:39.741Z,12.00
2018-09-02T04:08:10.728Z,11.80
2018-09-02T04:10:41.712Z,11.80
2018-09-02T04:13:12.663Z,11.90
2018-09-02T04:15:43.619Z,11.90
2018-09-02T04:18:14.630Z,11.80
2018-09-02T04:20:46.615Z,11.90
2018-09-02T04:23:17.555Z,12.00
2018-09-02T04:25:48.511Z,12.00
2018-09-02T04:28:19.451Z,12.00
2018-09-02T04:30:50.437Z,12.00
2018-09-02T04:33:21.476Z,12.00
2018-09-02T04:35:52.709Z,12.00
2018-09-02T04:38:23.671Z,11.90
2018-09-02T04:40:54.687Z,11.90
2018-09-02T04:43:25.712Z,12.00
2018-09-02T04:45:56.775Z,11.90
2018-09-02T04:48:27.881Z,11.90
2018-09-02T04:50:58.914Z,11.80
2018-09-02T04:53:29.934Z,11.80
2018-09-02T04:56:00.816Z,11.70
2018-09-02T04:58:31.831Z,11.90
2018-09-02T05:01:02.895Z,12.00
2018-09-02T05:03:34.299Z,12.00
2018-09-02T05:06:05.459Z,12.00
2018-09-02T05:08:36.483Z,11.90
2018-09-02T05:11:07.700Z,11.90
2018-09-02T05:13:38.623Z,11.80
2018-09-02T05:16:09.633Z,11.90
2018-09-02T05:18:40.539Z,12.10
2018-09-02T05:21:11.759Z,12.00
2018-09-02T05:23:42.891Z,12.00
2018-09-02T05:26:13.816Z,12.00
2018-09-02T05:28:45.106Z,12.00
2018-09-02T05:31:16.040Z,12.00
2018-09-02T05:33:47.608Z,12.00
2018-09-02T05:36:18.489Z,12.10
2018-09-02T05:38:49.440Z,12.10
2018-09-02T05:41:20.375Z,12.10
2018-09-02T05:43:51.405Z,12.10
2018-09-02T05:46:22.372Z,12.20
2018-09-02T05:48:53.351Z,12.20
2018-09-02T05:51:24.284Z,12.20
2018-09-02T05:53:55.277Z,12.30
2018-09-02T05:56:26.366Z,12.20
2018-09-02T05:58:57.324Z,12.20
2018-09-02T06:01:28.311Z,12.30
2018-09-02T06:03:59.271Z,12.20
2018-09-02T06:06:30.354Z,12.20
2018-09-02T06:09:01.396Z,12.20
2018-09-02T06:11:32.988Z,12.20
2018-09-02T06:14:04.512Z,12.20
2018-09-02T06:16:35.491Z,12.30
2018-09-02T06:19:06.564Z,12.20
2018-09-02T06:21:37.684Z,12.30
2018-09-02T06:24:08.631Z,12.40
2018-09-02T06:26:39.631Z,12.40
2018-09-02T06:29:10.740Z,12.40
2018-09-02T06:31:41.832Z,12.40
2018-09-02T06:34:12.999Z,12.50
2018-09-02T06:36:43.975Z,12.50
2018-09-02T06:39:15.023Z,12.50
2018-09-02T06:41:46.008Z,12.40
2018-09-02T06:44:17.085Z,12.40
2018-09-02T06:46:47.984Z,12.50
2018-09-02T06:49:18.899Z,12.60
2018-09-02T06:51:49.806Z,12.60
2018-09-02T06:54:21.424Z,12.70
2018-09-02T06:56:52.351Z,12.80
2018-09-02T06:59:23.352Z,12.90
2018-09-02T07:01:54.355Z,13.00
2018-09-02T07:04:25.506Z,13.00
2018-09-02T07:06:56.532Z,13.00
2018-09-02T07:09:27.531Z,12.90
2018-09-02T07:11:58.522Z,12.80
2018-09-02T07:14:29.575Z,12.80
2018-09-02T07:17:00.432Z,12.80
2018-09-02T07:19:31.492Z,12.80
2018-09-02T07:22:02.516Z,12.80
2018-09-02T07:24:33.784Z,12.80
2018-09-02T07:27:04.887Z,12.70
2018-09-02T07:29:35.877Z,12.80
2018-09-02T07:32:06.995Z,12.90
2018-09-02T07:34:37.976Z,13.00
2018-09-02T07:37:08.854Z,13.10
2018-09-02T07:39:39.824Z,13.20
2018-09-02T07:42:10.751Z,13.30
2018-09-02T07:44:41.804Z,13.20
2018-09-02T07:47:12.726Z,13.30
2018-09-02T07:49:43.717Z,13.30
2018-09-02T07:52:14.652Z,13.40
2018-09-02T07:54:45.610Z,13.60
2018-09-02T07:57:16.564Z,13.60
2018-09-02T07:59:47.653Z,13.70
2018-09-02T08:02:18.627Z,13.90
2018-09-02T08:04:49.651Z,14.20
2018-09-02T08:07:20.631Z,14.20
2018-09-02T08:09:51.564Z,14.20
2018-09-02T08:12:22.616Z,14.20
2018-09-02T08:14:53.483Z,14.40
2018-09-02T08:17:24.452Z,14.50
2018-09-02T08:19:56.493Z,14.60
2018-09-02T08:22:28.333Z,14.50
2018-09-02T08:24:59.323Z,14.60
2018-09-02T08:27:30.232Z,14.60
2018-09-02T08:30:01.295Z,14.70
2018-09-02T08:32:32.323Z,14.70
2018-09-02T08:35:03.311Z,14.80
2018-09-02T08:37:34.352Z,14.90
2018-09-02T08:40:05.634Z,14.80
2018-09-02T08:42:36.614Z,14.80
2018-09-02T08:45:09.696Z,14.90
2018-09-02T08:47:40.661Z,14.90
2018-09-02T08:50:11.640Z,15.00
2018-09-02T08:52:42.783Z,15.10
2018-09-02T08:55:13.820Z,15.30
2018-09-02T08:57:45.211Z,15.30
2018-09-02T09:00:17.980Z,15.40
2018-09-02T09:02:50.483Z,15.50
2018-09-02T09:05:21.552Z,15.50
2018-09-02T09:07:52.780Z,15.50
2018-09-02T09:10:23.686Z,15.60
2018-09-02T09:12:54.796Z,15.60
2018-09-02T09:15:26.066Z,15.50
2018-09-02T09:17:57.056Z,15.70
2018-09-02T09:20:28.092Z,15.60
2018-09-02T09:22:59.040Z,15.60
2018-09-02T09:25:31.048Z,15.70
2018-09-02T09:28:01.979Z,15.80
2018-09-02T09:30:33.880Z,16.00
2018-09-02T09:33:04.792Z,15.90
2018-09-02T09:35:35.766Z,15.90
2018-09-02T09:38:07.878Z,15.90
2018-09-02T09:40:39.070Z,15.90
2018-09-02T09:43:10.075Z,16.00
2018-09-02T09:45:41.254Z,15.90
2018-09-02T09:48:12.272Z,15.90
2018-09-02T09:50:43.546Z,15.90
2018-09-02T09:53:14.531Z,16.00
2018-09-02T09:55:45.551Z,16.00
2018-09-02T09:58:16.511Z,16.10
2018-09-02T10:00:51.168Z,16.10
2018-09-02T10:03:23.340Z,16.10
2018-09-02T10:05:54.245Z,16.20
2018-09-02T10:08:25.247Z,16.20
2018-09-02T10:10:56.907Z,16.40
2018-09-02T10:13:27.860Z,16.70
2018-09-02T10:15:58.879Z,16.70
2018-09-02T10:18:29.872Z,16.50
2018-09-02T10:21:00.904Z,16.60
2018-09-02T10:23:31.931Z,16.50
2018-09-02T10:26:02.915Z,16.70
2018-09-02T10:28:33.954Z,16.60
2018-09-02T10:31:05.523Z,16.60
2018-09-02T10:33:36.619Z,16.60
2018-09-02T10:36:09.119Z,16.80
2018-09-02T10:38:40.726Z,16.90
2018-09-02T10:41:11.989Z,16.90
2018-09-02T10:43:43.468Z,16.80
2018-09-02T10:46:14.403Z,16.90
2018-09-02T10:48:45.496Z,16.60
2018-09-02T10:51:17.232Z,16.50
2018-09-02T10:53:48.209Z,16.50
2018-09-02T10:56:19.695Z,16.60
2018-09-02T10:58:50.928Z,16.60
2018-09-02T11:01:22.064Z,16.60
2018-09-02T11:03:53.160Z,16.70
2018-09-02T11:06:24.316Z,16.70
2018-09-02T11:08:55.259Z,16.90
2018-09-02T11:11:26.415Z,16.90
2018-09-02T11:13:57.491Z,16.90
2018-09-02T11:16:28.504Z,16.90
2018-09-02T11:18:59.569Z,16.90
2018-09-02T11:21:30.615Z,16.80
2018-09-02T11:24:01.546Z,16.70
2018-09-02T11:26:32.772Z,16.70
2018-09-02T11:29:04.033Z,16.80
2018-09-02T11:31:35.107Z,16.80
2018-09-02T11:34:06.241Z,17.00
2018-09-02T11:36:37.874Z,17.40
2018-09-02T11:39:11.046Z,17.60
2018-09-02T11:41:42.026Z,17.40
2018-09-02T11:44:13.003Z,17.40
2018-09-02T11:46:44.119Z,17.50
2018-09-02T11:49:15.075Z,17.60
2018-09-02T11:51:46.146Z,17.40
2018-09-02T11:54:17.132Z,17.50
2018-09-02T11:56:48.412Z,17.70
2018-09-02T11:59:19.360Z,17.90
2018-09-02T12:01:50.543Z,18.10
2018-09-02T12:04:21.637Z,18.40
2018-09-02T12:06:52.772Z,18.40
2018-09-02T12:09:23.734Z,18.30
2018-09-02T12:11:54.788Z,18.40
2018-09-02T12:14:25.812Z,19.00
2018-09-02T12:16:56.927Z,19.40
2018-09-02T12:19:28.852Z,19.30
2018-09-02T12:21:59.891Z,18.70
2018-09-02T12:24:31.404Z,18.40
2018-09-02T12:27:02.872Z,18.70
2018-09-02T12:29:33.853Z,18.80
2018-09-02T12:32:05.815Z,18.30
2018-09-02T12:34:36.672Z,18.20
2018-09-02T12:37:07.672Z,18.10
2018-09-02T12:39:38.608Z,18.20
2018-09-02T12:42:10.347Z,18.50
2018-09-02T12:44:41.584Z,18.70
2018-09-02T12:47:12.847Z,18.70
2018-09-02T12:49:43.944Z,18.70
2018-09-02T12:52:17.045Z,18.90
2018-09-02T12:54:47.990Z,19.70
2018-09-02T12:57:18.943Z,19.90
2018-09-02T12:59:49.973Z,20.10
2018-09-02T13:02:20.933Z,19.90
2018-09-02T13:04:52.052Z,18.80
2018-09-02T13:07:22.956Z,18.60
2018-09-02T13:09:53.972Z,18.70
2018-09-02T13:12:24.926Z,19.20
2018-09-02T13:14:55.937Z,19.50
2018-09-02T13:17:26.952Z,19.60
2018-09-02T13:19:57.949Z,19.30
2018-09-02T13:22:28.985Z,19.60
2018-09-02T13:24:59.927Z,19.40
2018-09-02T13:27:31.033Z,19.90
2018-09-02T13:30:02.035Z,20.20
2018-09-02T13:32:33.078Z,20.20
2018-09-02T13:35:04.129Z,20.20
2018-09-02T13:37:35.468Z,20.30
2018-09-02T13:40:06.839Z,20.40
2018-09-02T13:42:38.232Z,20.40
2018-09-02T13:45:09.864Z,20.70
2018-09-02T13:47:40.904Z,20.80
2018-09-02T13:50:11.867Z,20.90
2018-09-02T13:52:42.871Z,20.60
2018-09-02T13:55:13.853Z,20.70
2018-09-02T13:57:44.903Z,20.90
2018-09-02T14:00:15.822Z,20.80
2018-09-02T14:02:46.956Z,21.10
2018-09-02T14:05:17.835Z,21.20
2018-09-02T14:07:48.862Z,21.10
2018-09-02T14:10:19.721Z,20.80
2018-09-02T14:12:51.297Z,20.90
2018-09-02T14:15:22.341Z,21.20
2018-09-02T14:17:53.386Z,21.10
2018-09-02T14:20:24.412Z,20.90
2018-09-02T14:22:55.599Z,20.70
2018-09-02T14:25:26.552Z,20.50
2018-09-02T14:27:58.423Z,20.40
2018-09-02T14:30:29.392Z,20.30
2018-09-02T14:33:00.475Z,20.00
2018-09-02T14:35:31.402Z,19.90
2018-09-02T14:38:02.456Z,19.80
2018-09-02T14:40:33.383Z,19.70
2018-09-02T14:43:04.456Z,19.40
2018-09-02T14:45:35.426Z,19.40
2018-09-02T14:48:06.436Z,19.40
2018-09-02T14:50:37.379Z,19.50
2018-09-02T14:53:08.565Z,19.60
2018-09-02T14:55:39.444Z,19.50
2018-09-02T14:58:10.539Z,19.80
2018-09-02T15:00:41.699Z,20.10
2018-09-02T15:03:12.832Z,20.60
2018-09-02T15:05:43.749Z,20.70
2018-09-02T15:08:14.836Z,21.00
2018-09-02T15:10:45.939Z,21.20
2018-09-02T15:13:16.969Z,21.30
2018-09-02T15:15:48.014Z,21.50
2018-09-02T15:18:18.991Z,21.10
2018-09-02T15:20:50.916Z,21.20
2018-09-02T15:23:22.116Z,21.40
2018-09-02T15:25:53.104Z,21.60
2018-09-02T15:28:25.048Z,21.40
2018-09-02T15:30:55.956Z,21.60
2018-09-02T15:33:26.962Z,21.10
2018-09-02T15:35:57.982Z,21.30
2018-09-02T15:38:28.946Z,21.30
2018-09-02T15:41:00.571Z,21.40
2018-09-02T15:43:31.512Z,21.70
2018-09-02T15:46:02.412Z,21.70
2018-09-02T15:48:33.410Z,21.40
2018-09-02T15:51:04.251Z,21.10
2018-09-02T15:53:35.497Z,21.20
2018-09-02T15:56:06.671Z,21.30
2018-09-02T15:58:37.704Z,21.10
2018-09-02T16:01:08.704Z,20.50
2018-09-02T16:03:39.758Z,20.00
2018-09-02T16:06:10.946Z,19.90
2018-09-02T16:08:41.929Z,19.90
2018-09-02T16:11:12.851Z,19.50
2018-09-02T16:13:43.854Z,19.30
2018-09-02T16:16:14.859Z,19.20
2018-09-02T16:18:45.911Z,19.10
2018-09-02T16:21:17.024Z,18.80
2018-09-02T16:23:48.423Z,18.60
2018-09-02T16:26:19.452Z,18.80
2018-09-02T16:28:51.323Z,18.60
2018-09-02T16:31:22.263Z,18.40
2018-09-02T16:33:53.571Z,18.20
2018-09-02T16:36:24.479Z,18.10
2018-09-02T16:38:55.428Z,18.00
2018-09-02T16:41:26.408Z,18.00
2018-09-02T16:43:57.436Z,17.80
2018-09-02T16:46:28.411Z,17.50
2018-09-02T16:48:59.538Z,17.40
2018-09-02T16:51:30.513Z,17.60
2018-09-02T16:54:01.524Z,17.30
2018-09-02T16:56:32.483Z,17.30
2018-09-02T16:59:03.548Z,17.20
2018-09-02T17:01:34.612Z,17.40
2018-09-02T17:04:09.102Z,17.40
2018-09-02T17:06:40.255Z,17.30
2018-09-02T17:09:12.835Z,17.30
2018-09-02T17:11:43.797Z,17.40
2018-09-02T17:14:14.812Z,17.30
2018-09-02T17:16:45.756Z,17.20
2018-09-02T17:19:21.012Z,17.00
2018-09-02T17:21:52.155Z,17.00
2018-09-02T17:24:23.335Z,16.90
2018-09-02T17:26:54.334Z,16.90
2018-09-02T17:29:25.442Z,16.80
2018-09-02T17:31:57.812Z,16.70
2018-09-02T17:34:28.866Z,16.70
2018-09-02T17:36:59.864Z,16.70
2018-09-02T17:39:31.408Z,16.70
2018-09-02T17:42:02.717Z,16.40
2018-09-02T17:44:33.807Z,16.50
2018-09-02T17:47:05.016Z,16.40
2018-09-02T17:49:36.335Z,16.50
2018-09-02T17:52:07.612Z,16.40
2018-09-02T17:54:38.824Z,16.40
2018-09-02T17:57:09.827Z,16.40
2018-09-02T17:59:40.829Z,16.40
2018-09-02T18:02:13.533Z,16.30
2018-09-02T18:04:45.775Z,16.30
2018-09-02T18:07:17.469Z,16.30
2018-09-02T18:09:48.674Z,16.20
2018-09-02T18:12:20.436Z,16.20
2018-09-02T18:14:52.787Z,16.20
2018-09-02T18:17:24.073Z,16.20
2018-09-02T18:19:56.072Z,16.20
2018-09-02T18:22:27.235Z,16.30
2018-09-02T18:24:58.725Z,16.30
2018-09-02T18:27:34.155Z,16.30
2018-09-02T18:30:07.756Z,16.00
2018-09-02T18:32:39.392Z,15.90
2018-09-02T18:35:11.192Z,15.90
2018-09-02T18:37:42.241Z,16.00
2018-09-02T18:40:15.705Z,16.00
2018-09-02T18:42:47.951Z,15.90
2018-09-02T18:45:20.008Z,15.80
2018-09-02T18:47:51.092Z,15.90
2018-09-02T18:50:23.342Z,15.80
2018-09-02T18:52:54.314Z,15.90
2018-09-02T18:55:27.885Z,16.00
2018-09-02T18:58:00.167Z,15.80
2018-09-02T19:00:31.947Z,15.70
2018-09-02T19:03:06.449Z,15.70
2018-09-02T19:05:38.714Z,15.70
2018-09-02T19:08:11.632Z,15.60
2018-09-02T19:10:43.262Z,15.60
2018-09-02T19:13:15.534Z,15.60
2018-09-02T19:15:46.598Z,15.50
2018-09-02T19:18:18.664Z,15.50
2018-09-02T19:20:49.644Z,15.50
2018-09-02T19:23:20.595Z,15.40
2018-09-02T19:25:53.792Z,15.40
2018-09-02T19:28:24.853Z,15.50
2018-09-02T19:30:55.899Z,15.30
2018-09-02T19:33:27.211Z,15.20
2018-09-02T19:35:58.274Z,15.00
2018-09-02T19:38:29.225Z,15.00
2018-09-02T19:41:00.501Z,15.10
2018-09-02T19:43:31.785Z,14.90
2018-09-02T19:46:03.784Z,14.80
2018-09-02T19:48:35.122Z,14.80
2018-09-02T19:51:06.665Z,14.90
2018-09-02T19:53:38.513Z,14.90
2018-09-02T19:56:10.327Z,14.90
2018-09-02T19:58:41.437Z,15.00
2018-09-02T20:01:14.573Z,14.90
2018-09-02T20:03:45.698Z,14.90
2018-09-02T20:06:16.726Z,14.90
2018-09-02T20:08:47.939Z,14.80
2018-09-02T20:11:19.016Z,14.90
2018-09-02T20:13:50.234Z,15.00
2018-09-02T20:16:21.470Z,14.90
2018-09-02T20:18:52.804Z,15.00
2018-09-02T20:21:24.071Z,15.00
2018-09-02T20:23:55.609Z,15.00
2018-09-02T20:26:26.811Z,15.00
2018-09-02T20:28:57.880Z,15.10
2018-09-02T20:31:29.692Z,15.20
2018-09-02T20:34:01.253Z,15.30
2018-09-02T20:36:32.529Z,15.00
2018-09-02T20:39:05.066Z,14.90
2018-09-02T20:41:36.323Z,15.00
2018-09-02T20:44:08.147Z,15.00
2018-09-02T20:46:39.704Z,14.90
2018-09-02T20:49:10.632Z,14.80
2018-09-02T20:51:42.248Z,14.70
2018-09-02T20:54:13.234Z,14.60
2018-09-02T20:56:45.544Z,14.60
2018-09-02T20:59:16.666Z,14.50
2018-09-02T21:01:47.630Z,14.60
2018-09-02T21:04:19.512Z,14.70
2018-09-02T21:06:51.166Z,14.80
2018-09-02T21:09:22.168Z,14.80
2018-09-02T21:11:53.692Z,14.80
2018-09-02T21:14:24.631Z,14.80
2018-09-02T21:16:55.606Z,14.70
2018-09-02T21:19:26.591Z,14.80
2018-09-02T21:21:57.680Z,14.80
2018-09-02T21:24:28.833Z,14.80
2018-09-02T21:27:00.496Z,14.90
2018-09-02T21:29:31.475Z,15.00
2018-09-02T21:32:02.443Z,15.00
2018-09-02T21:34:33.506Z,14.90
2018-09-02T21:37:04.589Z,14.80
2018-09-02T21:39:35.631Z,15.00
2018-09-02T21:42:06.731Z,14.90
2018-09-02T21:44:37.692Z,14.80
2018-09-02T21:47:08.675Z,14.70
2018-09-02T21:49:39.704Z,14.80
2018-09-02T21:52:10.788Z,15.00
2018-09-02T21:54:41.699Z,14.90
2018-09-02T21:57:12.641Z,14.60
2018-09-02T21:59:43.618Z,14.60
2018-09-02T22:02:14.692Z,14.70
2018-09-02T22:04:45.651Z,14.60
2018-09-02T22:07:16.695Z,14.70
2018-09-02T22:09:47.612Z,14.60
2018-09-02T22:12:18.632Z,14.70
2018-09-02T22:14:50.583Z,14.70
2018-09-02T22:17:21.592Z,14.80
2018-09-02T22:19:52.452Z,14.90
2018-09-02T22:22:23.444Z,14.90
2018-09-02T22:24:54.372Z,14.90
2018-09-02T22:27:26.305Z,14.90
2018-09-02T22:29:57.338Z,14.80
2018-09-02T22:32:28.351Z,14.60
2018-09-02T22:34:59.211Z,14.50
2018-09-02T22:37:30.296Z,14.50
2018-09-02T22:40:01.254Z,14.40
2018-09-02T22:42:32.252Z,14.30
2018-09-02T22:45:03.169Z,14.00
2018-09-02T22:47:34.144Z,13.90
2018-09-02T22:50:05.188Z,13.90
2018-09-02T22:52:36.212Z,14.00
2018-09-02T22:55:07.131Z,14.00
2018-09-02T22:57:38.232Z,14.20
2018-09-02T23:00:09.227Z,14.10
2018-09-02T23:02:40.191Z,13.80
2018-09-02T23:05:11.424Z,13.60
2018-09-02T23:07:42.431Z,13.50
2018-09-02T23:10:14.363Z,13.40
2018-09-02T23:12:45.516Z,13.40
2018-09-02T23:15:16.472Z,13.50
2018-09-02T23:17:47.393Z,13.50
2018-09-02T23:20:18.389Z,13.60
2018-09-02T23:22:49.575Z,13.70
2018-09-02T23:25:20.571Z,13.50
2018-09-02T23:27:51.656Z,13.60
2018-09-02T23:30:22.592Z,13.40
2018-09-02T23:32:53.651Z,13.40
2018-09-02T23:35:24.576Z,13.50
2018-09-02T23:37:55.511Z,13.50
2018-09-02T23:40:26.447Z,13.70
2018-09-02T23:42:57.411Z,13.60
2018-09-02T23:45:28.324Z,13.40
2018-09-02T23:47:59.343Z,13.60
2018-09-02T23:50:30.492Z,13.70
2018-09-02T23:53:01.431Z,13.60
2018-09-02T23:55:32.416Z,13.60
2018-09-02T23:58:03.592Z,13.60
